sensor_id;sensor_type;location;lat;lon;timestamp;P1;durP1;ratioP1;P2;durP2;ratioP2
26413;SDS011;14108;53.668;10.288;2022-07-22T00:01:58;22.17;;;15.95;;
26413;SDS011;14108;53.668;10.288;2022-07-22T00:04:25;23.12;;;17.17;;
26413;SDS011;14108;53.668;10.288;2022-07-22T00:06:52;20.40;;;16.20;;
26413;SDS011;14108;53.668;10.288;2022-07-22T00:09:19;23.90;;;16.87;;
26413;SDS011;14108;53.668;10.288;2022-07-22T00:11:46;21.42;;;17.12;;
26413;SDS011;14108;53.668;10.288;2022-07-22T00:14:13;26.42;;;19.45;;
26413;SDS011;14108;53.668;10.288;2022-07-22T00:16:41;24.02;;;18.58;;
26413;SDS011;14108;53.668;10.288;2022-07-22T00:19:08;21.25;;;16.92;;
26413;SDS011;14108;53.668;10.288;2022-07-22T00:21:35;23.12;;;18.05;;
26413;SDS011;14108;53.668;10.288;2022-07-22T00:24:03;23.65;;;17.98;;
26413;SDS011;14108;53.668;10.288;2022-07-22T00:26:30;23.60;;;17.25;;
26413;SDS011;14108;53.668;10.288;2022-07-22T00:28:57;22.42;;;17.77;;
26413;SDS011;14108;53.668;10.288;2022-07-22T00:31:24;22.55;;;15.65;;
26413;SDS011;14108;53.668;10.288;2022-07-22T00:33:51;24.02;;;18.10;;
26413;SDS011;14108;53.668;10.288;2022-07-22T00:36:18;23.90;;;17.40;;
26413;SDS011;14108;53.668;10.288;2022-07-22T00:38:45;26.85;;;18.98;;
26413;SDS011;14108;53.668;10.288;2022-07-22T00:41:12;25.00;;;18.77;;
26413;SDS011;14108;53.668;10.288;2022-07-22T00:43:50;22.95;;;18.60;;
26413;SDS011;14108;53.668;10.288;2022-07-22T00:46:17;24.58;;;18.83;;
26413;SDS011;14108;53.668;10.288;2022-07-22T00:48:44;24.08;;;18.65;;
26413;SDS011;14108;53.668;10.288;2022-07-22T00:51:11;25.50;;;18.50;;
26413;SDS011;14108;53.668;10.288;2022-07-22T00:53:38;24.70;;;18.83;;
26413;SDS011;14108;53.668;10.288;2022-07-22T00:56:06;21.90;;;17.27;;
26413;SDS011;14108;53.668;10.288;2022-07-22T00:58:33;29.15;;;20.42;;
26413;SDS011;14108;53.668;10.288;2022-07-22T01:01:00;24.70;;;18.73;;
26413;SDS011;14108;53.668;10.288;2022-07-22T01:03:27;30.75;;;19.87;;
26413;SDS011;14108;53.668;10.288;2022-07-22T01:05:54;25.37;;;17.85;;
26413;SDS011;14108;53.668;10.288;2022-07-22T01:08:21;28.05;;;16.92;;
26413;SDS011;14108;53.668;10.288;2022-07-22T01:10:48;32.97;;;16.75;;
26413;SDS011;14108;53.668;10.288;2022-07-22T01:13:15;25.30;;;13.93;;
26413;SDS011;14108;53.668;10.288;2022-07-22T01:15:42;22.58;;;13.35;;
26413;SDS011;14108;53.668;10.288;2022-07-22T01:18:09;17.25;;;10.82;;
26413;SDS011;14108;53.668;10.288;2022-07-22T01:20:36;12.30;;;7.57;;
26413;SDS011;14108;53.668;10.288;2022-07-22T01:23:04;13.27;;;7.82;;
26413;SDS011;14108;53.668;10.288;2022-07-22T01:25:31;7.62;;;6.25;;
26413;SDS011;14108;53.668;10.288;2022-07-22T01:27:58;8.23;;;5.60;;
26413;SDS011;14108;53.668;10.288;2022-07-22T01:30:25;6.80;;;5.20;;
26413;SDS011;14108;53.668;10.288;2022-07-22T01:32:52;7.50;;;4.53;;
26413;SDS011;14108;53.668;10.288;2022-07-22T01:35:19;5.97;;;3.90;;
26413;SDS011;14108;53.668;10.288;2022-07-22T01:37:46;4.87;;;3.55;;
26413;SDS011;14108;53.668;10.288;2022-07-22T01:40:13;6.00;;;3.00;;
26413;SDS011;14108;53.668;10.288;2022-07-22T01:42:40;5.68;;;2.67;;
26413;SDS011;14108;53.668;10.288;2022-07-22T01:45:08;3.72;;;1.77;;
26413;SDS011;14108;53.668;10.288;2022-07-22T01:47:35;1.77;;;1.40;;
26413;SDS011;14108;53.668;10.288;2022-07-22T01:50:03;4.50;;;1.45;;
26413;SDS011;14108;53.668;10.288;2022-07-22T01:52:31;2.42;;;1.40;;
26413;SDS011;14108;53.668;10.288;2022-07-22T01:54:58;5.95;;;2.17;;
26413;SDS011;14108;53.668;10.288;2022-07-22T01:57:25;3.45;;;1.60;;
26413;SDS011;14108;53.668;10.288;2022-07-22T01:59:52;4.68;;;1.50;;
26413;SDS011;14108;53.668;10.288;2022-07-22T02:02:19;3.75;;;1.50;;
26413;SDS011;14108;53.668;10.288;2022-07-22T02:04:46;6.03;;;1.77;;
26413;SDS011;14108;53.668;10.288;2022-07-22T02:07:13;4.30;;;1.60;;
26413;SDS011;14108;53.668;10.288;2022-07-22T02:09:40;4.35;;;1.90;;
26413;SDS011;14108;53.668;10.288;2022-07-22T02:12:07;4.55;;;1.73;;
26413;SDS011;14108;53.668;10.288;2022-07-22T02:14:34;3.45;;;1.83;;
26413;SDS011;14108;53.668;10.288;2022-07-22T02:17:02;5.53;;;1.73;;
26413;SDS011;14108;53.668;10.288;2022-07-22T02:19:29;5.53;;;1.75;;
26413;SDS011;14108;53.668;10.288;2022-07-22T02:21:56;4.28;;;2.15;;
26413;SDS011;14108;53.668;10.288;2022-07-22T02:24:23;7.50;;;2.15;;
26413;SDS011;14108;53.668;10.288;2022-07-22T02:26:50;6.37;;;2.50;;
26413;SDS011;14108;53.668;10.288;2022-07-22T02:29:17;10.02;;;3.83;;
26413;SDS011;14108;53.668;10.288;2022-07-22T02:31:44;9.40;;;3.25;;
26413;SDS011;14108;53.668;10.288;2022-07-22T02:34:11;7.90;;;3.75;;
26413;SDS011;14108;53.668;10.288;2022-07-22T02:36:39;9.57;;;4.35;;
26413;SDS011;14108;53.668;10.288;2022-07-22T02:39:06;13.35;;;4.75;;
26413;SDS011;14108;53.668;10.288;2022-07-22T02:41:33;11.40;;;4.10;;
26413;SDS011;14108;53.668;10.288;2022-07-22T02:44:00;10.63;;;4.20;;
26413;SDS011;14108;53.668;10.288;2022-07-22T02:46:27;8.80;;;3.95;;
26413;SDS011;14108;53.668;10.288;2022-07-22T02:48:54;13.73;;;4.95;;
26413;SDS011;14108;53.668;10.288;2022-07-22T02:51:21;11.27;;;5.28;;
26413;SDS011;14108;53.668;10.288;2022-07-22T02:53:49;13.73;;;5.22;;
26413;SDS011;14108;53.668;10.288;2022-07-22T02:56:16;11.90;;;4.78;;
26413;SDS011;14108;53.668;10.288;2022-07-22T02:58:45;10.77;;;4.68;;
26413;SDS011;14108;53.668;10.288;2022-07-22T03:01:12;12.50;;;4.90;;
26413;SDS011;14108;53.668;10.288;2022-07-22T03:03:39;12.37;;;4.82;;
26413;SDS011;14108;53.668;10.288;2022-07-22T03:06:07;13.07;;;5.30;;
26413;SDS011;14108;53.668;10.288;2022-07-22T03:08:34;12.68;;;4.82;;
26413;SDS011;14108;53.668;10.288;2022-07-22T03:11:01;12.70;;;5.00;;
26413;SDS011;14108;53.668;10.288;2022-07-22T03:13:28;12.07;;;4.53;;
26413;SDS011;14108;53.668;10.288;2022-07-22T03:15:55;13.48;;;5.28;;
26413;SDS011;14108;53.668;10.288;2022-07-22T03:18:22;17.98;;;5.65;;
26413;SDS011;14108;53.668;10.288;2022-07-22T03:20:49;12.05;;;4.47;;
26413;SDS011;14108;53.668;10.288;2022-07-22T03:23:16;11.15;;;4.45;;
26413;SDS011;14108;53.668;10.288;2022-07-22T03:25:43;12.30;;;4.43;;
26413;SDS011;14108;53.668;10.288;2022-07-22T03:28:10;16.65;;;4.82;;
26413;SDS011;14108;53.668;10.288;2022-07-22T03:30:37;12.98;;;4.80;;
26413;SDS011;14108;53.668;10.288;2022-07-22T03:33:04;9.18;;;4.20;;
26413;SDS011;14108;53.668;10.288;2022-07-22T03:35:31;12.05;;;4.95;;
26413;SDS011;14108;53.668;10.288;2022-07-22T03:37:58;18.12;;;6.05;;
26413;SDS011;14108;53.668;10.288;2022-07-22T03:40:25;14.00;;;5.82;;
26413;SDS011;14108;53.668;10.288;2022-07-22T03:42:52;12.00;;;5.78;;
26413;SDS011;14108;53.668;10.288;2022-07-22T03:45:19;8.85;;;6.00;;
26413;SDS011;14108;53.668;10.288;2022-07-22T03:47:46;13.00;;;6.85;;
26413;SDS011;14108;53.668;10.288;2022-07-22T03:50:13;10.27;;;6.28;;
26413;SDS011;14108;53.668;10.288;2022-07-22T03:52:40;9.65;;;6.30;;
26413;SDS011;14108;53.668;10.288;2022-07-22T03:55:08;15.52;;;7.70;;
26413;SDS011;14108;53.668;10.288;2022-07-22T03:57:35;13.85;;;7.37;;
26413;SDS011;14108;53.668;10.288;2022-07-22T04:00:02;15.27;;;7.30;;
26413;SDS011;14108;53.668;10.288;2022-07-22T04:02:30;12.95;;;6.30;;
26413;SDS011;14108;53.668;10.288;2022-07-22T04:04:57;13.80;;;6.35;;
26413;SDS011;14108;53.668;10.288;2022-07-22T04:07:24;13.13;;;6.82;;
26413;SDS011;14108;53.668;10.288;2022-07-22T04:09:51;11.52;;;5.90;;
26413;SDS011;14108;53.668;10.288;2022-07-22T04:12:30;18.90;;;7.05;;
26413;SDS011;14108;53.668;10.288;2022-07-22T04:14:57;12.50;;;6.20;;
26413;SDS011;14108;53.668;10.288;2022-07-22T04:17:24;9.23;;;4.82;;
26413;SDS011;14108;53.668;10.288;2022-07-22T04:19:51;12.60;;;6.15;;
26413;SDS011;14108;53.668;10.288;2022-07-22T04:22:19;13.57;;;5.97;;
26413;SDS011;14108;53.668;10.288;2022-07-22T04:24:46;9.30;;;4.28;;
26413;SDS011;14108;53.668;10.288;2022-07-22T04:27:13;11.00;;;4.62;;
26413;SDS011;14108;53.668;10.288;2022-07-22T04:29:40;6.20;;;3.33;;
26413;SDS011;14108;53.668;10.288;2022-07-22T04:32:07;11.02;;;4.25;;
26413;SDS011;14108;53.668;10.288;2022-07-22T04:34:34;10.50;;;5.22;;
26413;SDS011;14108;53.668;10.288;2022-07-22T04:37:01;10.68;;;4.03;;
26413;SDS011;14108;53.668;10.288;2022-07-22T04:39:28;11.80;;;4.50;;
26413;SDS011;14108;53.668;10.288;2022-07-22T04:41:55;8.35;;;3.60;;
26413;SDS011;14108;53.668;10.288;2022-07-22T04:44:22;4.72;;;2.97;;
26413;SDS011;14108;53.668;10.288;2022-07-22T04:46:49;8.70;;;3.70;;
26413;SDS011;14108;53.668;10.288;2022-07-22T04:49:16;6.37;;;3.05;;
26413;SDS011;14108;53.668;10.288;2022-07-22T04:51:43;8.95;;;3.17;;
26413;SDS011;14108;53.668;10.288;2022-07-22T04:54:10;5.65;;;2.92;;
26413;SDS011;14108;53.668;10.288;2022-07-22T04:56:37;8.05;;;3.20;;
26413;SDS011;14108;53.668;10.288;2022-07-22T04:59:04;8.93;;;2.95;;
26413;SDS011;14108;53.668;10.288;2022-07-22T05:01:31;7.50;;;3.10;;
26413;SDS011;14108;53.668;10.288;2022-07-22T05:03:58;7.25;;;2.87;;
26413;SDS011;14108;53.668;10.288;2022-07-22T05:06:25;12.13;;;3.60;;
26413;SDS011;14108;53.668;10.288;2022-07-22T05:08:52;8.95;;;3.10;;
26413;SDS011;14108;53.668;10.288;2022-07-22T05:11:20;8.90;;;2.97;;
26413;SDS011;14108;53.668;10.288;2022-07-22T05:13:47;5.32;;;2.62;;
26413;SDS011;14108;53.668;10.288;2022-07-22T05:16:14;9.18;;;2.90;;
26413;SDS011;14108;53.668;10.288;2022-07-22T05:18:41;12.07;;;3.92;;
26413;SDS011;14108;53.668;10.288;2022-07-22T05:21:08;7.35;;;2.55;;
26413;SDS011;14108;53.668;10.288;2022-07-22T05:23:35;6.80;;;2.75;;
26413;SDS011;14108;53.668;10.288;2022-07-22T05:26:03;9.07;;;3.00;;
26413;SDS011;14108;53.668;10.288;2022-07-22T05:28:30;9.75;;;3.53;;
26413;SDS011;14108;53.668;10.288;2022-07-22T05:30:57;6.35;;;2.90;;
26413;SDS011;14108;53.668;10.288;2022-07-22T05:33:24;6.50;;;3.30;;
26413;SDS011;14108;53.668;10.288;2022-07-22T05:35:51;10.27;;;2.85;;
26413;SDS011;14108;53.668;10.288;2022-07-22T05:38:18;21.75;;;4.90;;
26413;SDS011;14108;53.668;10.288;2022-07-22T05:40:45;8.55;;;3.53;;
26413;SDS011;14108;53.668;10.288;2022-07-22T05:43:12;8.05;;;3.42;;
26413;SDS011;14108;53.668;10.288;2022-07-22T05:45:39;10.73;;;3.65;;
26413;SDS011;14108;53.668;10.288;2022-07-22T05:48:06;11.40;;;3.20;;
26413;SDS011;14108;53.668;10.288;2022-07-22T05:50:33;10.50;;;3.15;;
26413;SDS011;14108;53.668;10.288;2022-07-22T05:53:02;9.25;;;3.62;;
26413;SDS011;14108;53.668;10.288;2022-07-22T05:55:29;9.57;;;3.37;;
26413;SDS011;14108;53.668;10.288;2022-07-22T05:57:56;9.10;;;2.97;;
26413;SDS011;14108;53.668;10.288;2022-07-22T06:00:23;10.15;;;3.83;;
26413;SDS011;14108;53.668;10.288;2022-07-22T06:02:50;13.38;;;4.43;;
26413;SDS011;14108;53.668;10.288;2022-07-22T06:05:17;8.63;;;3.20;;
26413;SDS011;14108;53.668;10.288;2022-07-22T06:07:45;8.57;;;2.92;;
26413;SDS011;14108;53.668;10.288;2022-07-22T06:10:12;7.37;;;3.05;;
26413;SDS011;14108;53.668;10.288;2022-07-22T06:12:39;7.78;;;2.97;;
26413;SDS011;14108;53.668;10.288;2022-07-22T06:15:06;8.93;;;2.97;;
26413;SDS011;14108;53.668;10.288;2022-07-22T06:17:33;11.55;;;3.50;;
26413;SDS011;14108;53.668;10.288;2022-07-22T06:20:00;8.32;;;3.17;;
26413;SDS011;14108;53.668;10.288;2022-07-22T06:22:27;7.68;;;3.37;;
26413;SDS011;14108;53.668;10.288;2022-07-22T06:24:54;8.98;;;3.55;;
26413;SDS011;14108;53.668;10.288;2022-07-22T06:27:21;12.37;;;3.62;;
26413;SDS011;14108;53.668;10.288;2022-07-22T06:29:48;8.30;;;3.17;;
26413;SDS011;14108;53.668;10.288;2022-07-22T06:32:16;12.02;;;3.58;;
26413;SDS011;14108;53.668;10.288;2022-07-22T06:34:43;10.68;;;3.47;;
26413;SDS011;14108;53.668;10.288;2022-07-22T06:37:10;14.07;;;4.07;;
26413;SDS011;14108;53.668;10.288;2022-07-22T06:39:37;12.45;;;3.55;;
26413;SDS011;14108;53.668;10.288;2022-07-22T06:42:04;8.60;;;3.45;;
26413;SDS011;14108;53.668;10.288;2022-07-22T06:44:31;9.35;;;3.20;;
26413;SDS011;14108;53.668;10.288;2022-07-22T06:46:58;16.75;;;4.18;;
26413;SDS011;14108;53.668;10.288;2022-07-22T06:49:25;13.52;;;3.75;;
26413;SDS011;14108;53.668;10.288;2022-07-22T06:51:52;10.10;;;3.67;;
26413;SDS011;14108;53.668;10.288;2022-07-22T06:54:19;7.28;;;3.45;;
26413;SDS011;14108;53.668;10.288;2022-07-22T06:56:46;15.35;;;4.03;;
26413;SDS011;14108;53.668;10.288;2022-07-22T06:59:13;12.43;;;4.30;;
26413;SDS011;14108;53.668;10.288;2022-07-22T07:01:40;12.13;;;3.97;;
26413;SDS011;14108;53.668;10.288;2022-07-22T07:04:07;10.60;;;3.67;;
26413;SDS011;14108;53.668;10.288;2022-07-22T07:06:34;9.27;;;3.80;;
26413;SDS011;14108;53.668;10.288;2022-07-22T07:09:01;13.07;;;3.30;;
26413;SDS011;14108;53.668;10.288;2022-07-22T07:11:29;11.50;;;3.78;;
26413;SDS011;14108;53.668;10.288;2022-07-22T07:13:56;9.65;;;3.60;;
26413;SDS011;14108;53.668;10.288;2022-07-22T07:16:23;10.70;;;3.60;;
26413;SDS011;14108;53.668;10.288;2022-07-22T07:18:50;11.32;;;3.25;;
26413;SDS011;14108;53.668;10.288;2022-07-22T07:21:17;8.90;;;3.12;;
26413;SDS011;14108;53.668;10.288;2022-07-22T07:23:44;9.57;;;3.22;;
26413;SDS011;14108;53.668;10.288;2022-07-22T07:26:11;14.43;;;3.28;;
26413;SDS011;14108;53.668;10.288;2022-07-22T07:28:39;10.75;;;3.97;;
26413;SDS011;14108;53.668;10.288;2022-07-22T07:31:07;8.13;;;3.25;;
26413;SDS011;14108;53.668;10.288;2022-07-22T07:33:34;9.05;;;3.83;;
26413;SDS011;14108;53.668;10.288;2022-07-22T07:36:01;7.00;;;2.90;;
26413;SDS011;14108;53.668;10.288;2022-07-22T07:38:28;10.40;;;3.47;;
26413;SDS011;14108;53.668;10.288;2022-07-22T07:40:55;9.10;;;3.40;;
26413;SDS011;14108;53.668;10.288;2022-07-22T07:43:22;12.25;;;3.87;;
26413;SDS011;14108;53.668;10.288;2022-07-22T07:45:49;14.13;;;4.10;;
26413;SDS011;14108;53.668;10.288;2022-07-22T07:48:16;8.57;;;4.20;;
26413;SDS011;14108;53.668;10.288;2022-07-22T07:50:43;9.02;;;3.30;;
26413;SDS011;14108;53.668;10.288;2022-07-22T07:53:13;11.10;;;3.08;;
26413;SDS011;14108;53.668;10.288;2022-07-22T07:55:41;9.95;;;3.22;;
26413;SDS011;14108;53.668;10.288;2022-07-22T07:58:08;14.65;;;3.47;;
26413;SDS011;14108;53.668;10.288;2022-07-22T08:00:35;9.18;;;3.40;;
26413;SDS011;14108;53.668;10.288;2022-07-22T08:03:04;11.35;;;3.95;;
26413;SDS011;14108;53.668;10.288;2022-07-22T08:05:32;10.88;;;3.20;;
26413;SDS011;14108;53.668;10.288;2022-07-22T08:07:59;15.27;;;4.47;;
26413;SDS011;14108;53.668;10.288;2022-07-22T08:10:26;12.57;;;3.85;;
26413;SDS011;14108;53.668;10.288;2022-07-22T08:12:53;8.20;;;3.35;;
26413;SDS011;14108;53.668;10.288;2022-07-22T08:15:21;11.02;;;5.50;;
26413;SDS011;14108;53.668;10.288;2022-07-22T08:17:48;9.05;;;3.08;;
26413;SDS011;14108;53.668;10.288;2022-07-22T08:20:15;12.48;;;3.47;;
26413;SDS011;14108;53.668;10.288;2022-07-22T08:22:42;13.88;;;3.70;;
26413;SDS011;14108;53.668;10.288;2022-07-22T08:25:09;10.73;;;3.62;;
26413;SDS011;14108;53.668;10.288;2022-07-22T08:27:36;14.98;;;3.50;;
26413;SDS011;14108;53.668;10.288;2022-07-22T08:30:04;9.00;;;3.33;;
26413;SDS011;14108;53.668;10.288;2022-07-22T08:32:32;5.50;;;2.72;;
26413;SDS011;14108;53.668;10.288;2022-07-22T08:34:59;9.60;;;3.53;;
26413;SDS011;14108;53.668;10.288;2022-07-22T08:37:26;12.63;;;3.25;;
26413;SDS011;14108;53.668;10.288;2022-07-22T08:39:53;14.57;;;3.33;;
26413;SDS011;14108;53.668;10.288;2022-07-22T08:42:21;9.93;;;3.50;;
26413;SDS011;14108;53.668;10.288;2022-07-22T08:44:48;12.02;;;3.15;;
26413;SDS011;14108;53.668;10.288;2022-07-22T08:47:15;8.07;;;2.60;;
26413;SDS011;14108;53.668;10.288;2022-07-22T08:49:42;8.82;;;2.80;;
26413;SDS011;14108;53.668;10.288;2022-07-22T08:52:09;9.80;;;2.78;;
26413;SDS011;14108;53.668;10.288;2022-07-22T08:54:36;10.70;;;3.08;;
26413;SDS011;14108;53.668;10.288;2022-07-22T08:57:03;11.93;;;3.25;;
26413;SDS011;14108;53.668;10.288;2022-07-22T08:59:30;9.40;;;3.37;;
26413;SDS011;14108;53.668;10.288;2022-07-22T09:02:05;9.45;;;2.70;;
26413;SDS011;14108;53.668;10.288;2022-07-22T09:04:32;14.10;;;2.97;;
26413;SDS011;14108;53.668;10.288;2022-07-22T09:07:18;12.43;;;3.15;;
26413;SDS011;14108;53.668;10.288;2022-07-22T09:09:49;7.75;;;2.53;;
26413;SDS011;14108;53.668;10.288;2022-07-22T09:12:16;6.30;;;2.28;;
26413;SDS011;14108;53.668;10.288;2022-07-22T09:14:44;8.00;;;2.40;;
26413;SDS011;14108;53.668;10.288;2022-07-22T09:17:24;10.30;;;2.80;;
26413;SDS011;14108;53.668;10.288;2022-07-22T09:19:52;8.35;;;2.40;;
26413;SDS011;14108;53.668;10.288;2022-07-22T09:22:32;9.98;;;2.67;;
26413;SDS011;14108;53.668;10.288;2022-07-22T09:24:59;8.57;;;2.42;;
26413;SDS011;14108;53.668;10.288;2022-07-22T09:30:10;9.02;;;2.40;;
26413;SDS011;14108;53.668;10.288;2022-07-22T09:32:39;8.10;;;2.25;;
26413;SDS011;14108;53.668;10.288;2022-07-22T09:35:07;14.27;;;2.83;;
26413;SDS011;14108;53.668;10.288;2022-07-22T09:37:34;11.25;;;2.22;;
26413;SDS011;14108;53.668;10.288;2022-07-22T09:40:11;8.30;;;2.35;;
26413;SDS011;14108;53.668;10.288;2022-07-22T09:42:44;8.05;;;2.30;;
26413;SDS011;14108;53.668;10.288;2022-07-22T09:45:11;12.23;;;2.47;;
26413;SDS011;14108;53.668;10.288;2022-07-22T09:47:40;9.90;;;2.20;;
26413;SDS011;14108;53.668;10.288;2022-07-22T09:50:14;8.65;;;2.25;;
26413;SDS011;14108;53.668;10.288;2022-07-22T09:52:41;8.20;;;2.80;;
26413;SDS011;14108;53.668;10.288;2022-07-22T09:55:08;11.18;;;2.45;;
26413;SDS011;14108;53.668;10.288;2022-07-22T09:57:35;7.12;;;2.37;;
26413;SDS011;14108;53.668;10.288;2022-07-22T10:00:03;8.88;;;1.95;;
26413;SDS011;14108;53.668;10.288;2022-07-22T10:02:32;8.63;;;2.20;;
26413;SDS011;14108;53.668;10.288;2022-07-22T10:05:00;6.53;;;2.00;;
26413;SDS011;14108;53.668;10.288;2022-07-22T10:07:27;9.20;;;2.22;;
26413;SDS011;14108;53.668;10.288;2022-07-22T10:09:54;6.05;;;1.95;;
26413;SDS011;14108;53.668;10.288;2022-07-22T10:12:21;9.50;;;2.67;;
26413;SDS011;14108;53.668;10.288;2022-07-22T10:14:48;8.82;;;2.45;;
26413;SDS011;14108;53.668;10.288;2022-07-22T10:17:15;9.65;;;2.65;;
26413;SDS011;14108;53.668;10.288;2022-07-22T10:19:43;7.93;;;2.45;;
26413;SDS011;14108;53.668;10.288;2022-07-22T10:25:00;9.57;;;2.30;;
26413;SDS011;14108;53.668;10.288;2022-07-22T10:27:43;8.35;;;2.37;;
26413;SDS011;14108;53.668;10.288;2022-07-22T10:30:12;7.45;;;2.25;;
26413;SDS011;14108;53.668;10.288;2022-07-22T10:32:39;9.25;;;2.00;;
26413;SDS011;14108;53.668;10.288;2022-07-22T10:35:24;7.15;;;1.70;;
26413;SDS011;14108;53.668;10.288;2022-07-22T10:37:53;9.85;;;2.00;;
26413;SDS011;14108;53.668;10.288;2022-07-22T10:40:21;15.02;;;2.42;;
26413;SDS011;14108;53.668;10.288;2022-07-22T10:43:02;8.98;;;2.10;;
26413;SDS011;14108;53.668;10.288;2022-07-22T10:45:31;8.80;;;2.03;;
26413;SDS011;14108;53.668;10.288;2022-07-22T10:47:59;12.25;;;2.17;;
26413;SDS011;14108;53.668;10.288;2022-07-22T10:50:40;5.62;;;2.00;;
26413;SDS011;14108;53.668;10.288;2022-07-22T10:53:08;4.68;;;1.75;;
26413;SDS011;14108;53.668;10.288;2022-07-22T10:55:36;5.75;;;1.98;;
26413;SDS011;14108;53.668;10.288;2022-07-22T11:00:50;4.40;;;1.40;;
26413;SDS011;14108;53.668;10.288;2022-07-22T11:03:23;7.68;;;1.95;;
26413;SDS011;14108;53.668;10.288;2022-07-22T11:05:51;5.70;;;2.25;;
26413;SDS011;14108;53.668;10.288;2022-07-22T11:08:18;7.18;;;2.05;;
26413;SDS011;14108;53.668;10.288;2022-07-22T11:10:47;7.57;;;1.90;;
26413;SDS011;14108;53.668;10.288;2022-07-22T11:13:30;6.65;;;1.55;;
26413;SDS011;14108;53.668;10.288;2022-07-22T11:15:57;8.07;;;2.05;;
26413;SDS011;14108;53.668;10.288;2022-07-22T11:18:50;7.00;;;1.70;;
26413;SDS011;14108;53.668;10.288;2022-07-22T11:21:18;7.82;;;1.67;;
26413;SDS011;14108;53.668;10.288;2022-07-22T11:23:45;4.12;;;1.70;;
26413;SDS011;14108;53.668;10.288;2022-07-22T11:26:14;9.07;;;2.10;;
26413;SDS011;14108;53.668;10.288;2022-07-22T11:28:41;4.60;;;1.98;;
26413;SDS011;14108;53.668;10.288;2022-07-22T11:31:09;5.45;;;1.62;;
26413;SDS011;14108;53.668;10.288;2022-07-22T11:33:37;6.62;;;1.37;;
26413;SDS011;14108;53.668;10.288;2022-07-22T11:36:05;3.30;;;1.58;;
26413;SDS011;14108;53.668;10.288;2022-07-22T11:38:45;6.03;;;1.75;;
26413;SDS011;14108;53.668;10.288;2022-07-22T11:41:13;6.05;;;1.52;;
26413;SDS011;14108;53.668;10.288;2022-07-22T11:43:41;7.30;;;1.70;;
26413;SDS011;14108;53.668;10.288;2022-07-22T11:46:09;4.68;;;1.60;;
26413;SDS011;14108;53.668;10.288;2022-07-22T11:48:36;6.93;;;1.65;;
26413;SDS011;14108;53.668;10.288;2022-07-22T11:51:03;3.40;;;1.52;;
26413;SDS011;14108;53.668;10.288;2022-07-22T11:53:30;3.75;;;1.40;;
26413;SDS011;14108;53.668;10.288;2022-07-22T11:55:58;4.97;;;1.40;;
26413;SDS011;14108;53.668;10.288;2022-07-22T11:58:35;7.82;;;1.90;;
26413;SDS011;14108;53.668;10.288;2022-07-22T12:01:02;5.32;;;1.42;;
26413;SDS011;14108;53.668;10.288;2022-07-22T12:03:30;3.03;;;1.30;;
26413;SDS011;14108;53.668;10.288;2022-07-22T12:05:57;5.53;;;1.67;;
26413;SDS011;14108;53.668;10.288;2022-07-22T12:08:24;3.15;;;1.30;;
26413;SDS011;14108;53.668;10.288;2022-07-22T12:10:51;6.70;;;1.62;;
26413;SDS011;14108;53.668;10.288;2022-07-22T12:13:18;5.37;;;1.60;;
26413;SDS011;14108;53.668;10.288;2022-07-22T12:15:46;5.35;;;1.52;;
26413;SDS011;14108;53.668;10.288;2022-07-22T12:18:16;5.70;;;1.40;;
26413;SDS011;14108;53.668;10.288;2022-07-22T12:20:45;6.15;;;1.98;;
26413;SDS011;14108;53.668;10.288;2022-07-22T12:23:12;5.15;;;1.37;;
26413;SDS011;14108;53.668;10.288;2022-07-22T12:25:52;5.25;;;1.58;;
26413;SDS011;14108;53.668;10.288;2022-07-22T12:28:19;5.97;;;1.73;;
26413;SDS011;14108;53.668;10.288;2022-07-22T12:30:46;3.65;;;1.23;;
26413;SDS011;14108;53.668;10.288;2022-07-22T12:33:14;6.37;;;1.85;;
26413;SDS011;14108;53.668;10.288;2022-07-22T12:35:41;4.05;;;1.40;;
26413;SDS011;14108;53.668;10.288;2022-07-22T12:38:08;7.65;;;1.42;;
26413;SDS011;14108;53.668;10.288;2022-07-22T12:40:36;6.07;;;1.65;;
26413;SDS011;14108;53.668;10.288;2022-07-22T12:43:04;5.60;;;2.20;;
26413;SDS011;14108;53.668;10.288;2022-07-22T12:45:32;6.55;;;1.17;;
26413;SDS011;14108;53.668;10.288;2022-07-22T12:48:05;5.68;;;1.85;;
26413;SDS011;14108;53.668;10.288;2022-07-22T12:50:34;4.10;;;1.35;;
26413;SDS011;14108;53.668;10.288;2022-07-22T12:53:02;5.20;;;1.45;;
26413;SDS011;14108;53.668;10.288;2022-07-22T12:55:31;3.92;;;1.10;;
26413;SDS011;14108;53.668;10.288;2022-07-22T12:57:58;4.78;;;1.25;;
26413;SDS011;14108;53.668;10.288;2022-07-22T13:00:26;6.37;;;1.40;;
26413;SDS011;14108;53.668;10.288;2022-07-22T13:02:54;5.68;;;1.62;;
26413;SDS011;14108;53.668;10.288;2022-07-22T13:05:21;6.85;;;1.60;;
26413;SDS011;14108;53.668;10.288;2022-07-22T13:07:49;5.85;;;2.45;;
26413;SDS011;14108;53.668;10.288;2022-07-22T13:10:16;3.87;;;1.15;;
26413;SDS011;14108;53.668;10.288;2022-07-22T13:12:46;4.93;;;1.40;;
26413;SDS011;14108;53.668;10.288;2022-07-22T13:15:13;6.60;;;1.50;;
26413;SDS011;14108;53.668;10.288;2022-07-22T13:17:41;5.07;;;1.20;;
26413;SDS011;14108;53.668;10.288;2022-07-22T13:20:09;3.45;;;1.20;;
26413;SDS011;14108;53.668;10.288;2022-07-22T13:22:36;2.20;;;0.95;;
26413;SDS011;14108;53.668;10.288;2022-07-22T13:25:04;4.60;;;1.33;;
26413;SDS011;14108;53.668;10.288;2022-07-22T13:27:31;5.12;;;1.20;;
26413;SDS011;14108;53.668;10.288;2022-07-22T13:29:58;3.00;;;1.25;;
26413;SDS011;14108;53.668;10.288;2022-07-22T13:32:25;3.50;;;1.12;;
26413;SDS011;14108;53.668;10.288;2022-07-22T13:34:52;5.45;;;1.48;;
26413;SDS011;14108;53.668;10.288;2022-07-22T13:37:20;2.97;;;1.25;;
26413;SDS011;14108;53.668;10.288;2022-07-22T13:39:47;5.85;;;1.15;;
26413;SDS011;14108;53.668;10.288;2022-07-22T13:42:14;7.62;;;1.60;;
26413;SDS011;14108;53.668;10.288;2022-07-22T13:44:43;3.72;;;1.40;;
26413;SDS011;14108;53.668;10.288;2022-07-22T13:47:10;4.32;;;1.50;;
26413;SDS011;14108;53.668;10.288;2022-07-22T13:49:37;5.25;;;1.77;;
26413;SDS011;14108;53.668;10.288;2022-07-22T13:52:05;6.37;;;1.55;;
26413;SDS011;14108;53.668;10.288;2022-07-22T13:54:32;7.40;;;1.75;;
26413;SDS011;14108;53.668;10.288;2022-07-22T13:56:59;7.25;;;1.67;;
26413;SDS011;14108;53.668;10.288;2022-07-22T13:59:26;4.20;;;1.27;;
26413;SDS011;14108;53.668;10.288;2022-07-22T14:01:55;7.18;;;1.80;;
26413;SDS011;14108;53.668;10.288;2022-07-22T14:04:22;6.10;;;1.70;;
26413;SDS011;14108;53.668;10.288;2022-07-22T14:06:49;6.35;;;1.83;;
26413;SDS011;14108;53.668;10.288;2022-07-22T14:09:16;5.97;;;1.20;;
26413;SDS011;14108;53.668;10.288;2022-07-22T14:11:43;3.37;;;1.17;;
26413;SDS011;14108;53.668;10.288;2022-07-22T14:14:10;5.35;;;1.60;;
26413;SDS011;14108;53.668;10.288;2022-07-22T14:16:38;4.35;;;1.10;;
26413;SDS011;14108;53.668;10.288;2022-07-22T14:19:06;4.12;;;1.23;;
26413;SDS011;14108;53.668;10.288;2022-07-22T14:21:34;5.60;;;1.55;;
26413;SDS011;14108;53.668;10.288;2022-07-22T14:24:01;4.53;;;1.27;;
26413;SDS011;14108;53.668;10.288;2022-07-22T14:26:29;4.82;;;1.58;;
26413;SDS011;14108;53.668;10.288;2022-07-22T14:28:56;4.97;;;1.10;;
26413;SDS011;14108;53.668;10.288;2022-07-22T14:31:23;5.57;;;1.30;;
26413;SDS011;14108;53.668;10.288;2022-07-22T14:33:50;3.75;;;1.37;;
26413;SDS011;14108;53.668;10.288;2022-07-22T14:36:17;2.17;;;1.17;;
26413;SDS011;14108;53.668;10.288;2022-07-22T14:38:44;4.53;;;1.40;;
26413;SDS011;14108;53.668;10.288;2022-07-22T14:41:11;5.10;;;1.35;;